Airfield :
LOGIN :

Register | Disclaimer

   EN    FR    IT 

 










Legend :    VFR   Marginal VFR   IFR   Intensive IFR   Very Intensive IFR
Visi :
Ceiling :
>= 8 km
>= 3000ft
5 to 8 km
1000 to 3000 ft
1500m to 5 km
500 to 1000 ft
800 to 1500m
200 to 500 ft
< 800m
< 200 ft
Symbols :   Thunderstorms  Fog  Heavy snow  Heavy precipitations  Wind > 20 kt
SIGMETs :     Misc.  Thunderstorms  Icing  Turbulence  Mountain Waves  Volcanic Ashes







- Airport Elevation : 154 ft
- IATA code : SZZ


EPSC - Szczecin Goleniow

CURRENT METAR :
  • 172300Z 30014KT 9999 FEW004 BKN006 OVC007 02/01 Q0999

EXPIRED METARs :
  • 172230Z 31013KT 9999 -SHRA FEW004 BKN006 OVC007TCU 02/01 Q0999
  • 172200Z 29012KT 9999 -SHRA BKN005 OVC010TCU 02/01 Q0998
  • 172130Z 25010KT 220V280 9999 -SHRA FEW003 BKN010TCU 03/01 Q0997
  • 172100Z 25008KT 9999 FEW003 BKN014 04/01 Q0997
  • 172030Z 24007KT 210V280 9999 FEW013 04/01 Q0997

TAF TAF EPSC
Valid from the 17 at 18:00 until the 18 at 18:00 UTC


171730Z 1718/1818 21010KT 9999 BKN040
TEMPO 1718/1808 4000 SHRASN BKN005 BKN012CB
PROB40
TEMPO 1801/1805 33018G33KT 0600 SHSN BLSN BKN003 BKN009CB
BECMG 1807/1809 27008KT
No reported NOTAMs for that airfield.



MET'MAP, your aeronautical weather chart ! - Copyright ORBIFLY December 2007 - Disclaimer

ORBIFLY MET'MAP TEAM :

Programming & Development : Alexandra Zaïnal
Concept & Development : Baudouin d'Aumeries
Co-Development & Prog : Marc-Olivier Méhu
Technical & hardware support : Manuel Goepfert

Contact : metmap@orbifly.com




SOURCES & CREDITS :

   NOAA